createdAt,value
2023-01-30T00:01:04.716Z,24.88
2023-01-30T00:03:32.030Z,27.75
2023-01-30T00:05:59.413Z,26.58
2023-01-30T00:08:26.816Z,27.38
2023-01-30T00:11:02.019Z,25.85
2023-01-30T00:13:29.432Z,24.85
2023-01-30T00:15:56.858Z,24.48
2023-01-30T00:18:25.017Z,23.52
2023-01-30T00:21:00.298Z,23.05
2023-01-30T00:23:28.538Z,21.95
2023-01-30T00:25:56.181Z,19.98
2023-01-30T00:28:24.153Z,17.98
2023-01-30T00:30:53.013Z,16.73
2023-01-30T00:33:22.002Z,16.20
2023-01-30T00:35:50.831Z,13.30
2023-01-30T00:38:18.777Z,12.60
2023-01-30T00:40:46.732Z,12.38
2023-01-30T00:43:34.901Z,11.02
2023-01-30T00:46:22.044Z,10.80
2023-01-30T00:48:49.439Z,10.68
2023-01-30T00:51:17.023Z,10.98
2023-01-30T00:53:44.372Z,10.43
2023-01-30T00:56:11.737Z,10.98
2023-01-30T00:58:39.270Z,11.25
2023-01-30T01:01:06.594Z,11.05
2023-01-30T01:03:34.044Z,10.98
2023-01-30T01:06:01.371Z,10.13
2023-01-30T01:08:28.820Z,9.75
2023-01-30T01:10:56.179Z,9.55
2023-01-30T01:13:23.575Z,9.85
2023-01-30T01:15:51.076Z,8.45
2023-01-30T01:18:18.417Z,9.23
2023-01-30T01:20:45.830Z,9.15
2023-01-30T01:23:13.165Z,9.32
2023-01-30T01:25:40.628Z,8.70
2023-01-30T01:28:08.546Z,7.65
2023-01-30T01:30:35.910Z,8.68
2023-01-30T01:33:03.268Z,7.50
2023-01-30T01:35:30.587Z,7.38
2023-01-30T01:37:57.892Z,8.05
2023-01-30T01:40:43.876Z,7.45
2023-01-30T01:43:22.164Z,8.35
2023-01-30T01:45:53.901Z,7.68
2023-01-30T01:48:37.224Z,7.07
2023-01-30T01:51:11.844Z,7.43
2023-01-30T01:53:49.960Z,7.78
2023-01-30T01:56:19.165Z,8.07
2023-01-30T01:58:56.196Z,7.05
2023-01-30T02:01:23.908Z,7.50
2023-01-30T02:03:54.949Z,7.65
2023-01-30T02:06:23.741Z,7.22
2023-01-30T02:08:59.895Z,7.07
2023-01-30T02:11:47.203Z,7.35
2023-01-30T02:14:15.652Z,7.53
2023-01-30T02:16:44.450Z,7.25
2023-01-30T02:19:53.121Z,8.18
2023-01-30T02:22:43.795Z,7.18
2023-01-30T02:25:40.614Z,7.20
2023-01-30T02:28:30.325Z,6.68
2023-01-30T02:31:41.195Z,6.60
2023-01-30T02:34:58.035Z,6.57
2023-01-30T02:37:40.201Z,7.47
2023-01-30T02:40:16.878Z,6.65
2023-01-30T02:43:03.097Z,6.80
2023-01-30T02:45:50.295Z,6.35
2023-01-30T02:48:40.849Z,6.00
2023-01-30T02:51:31.885Z,6.22
2023-01-30T02:54:00.440Z,7.13
2023-01-30T02:56:27.857Z,7.00
2023-01-30T02:59:07.017Z,7.40
2023-01-30T03:02:09.151Z,6.63
2023-01-30T03:04:47.360Z,6.53
2023-01-30T03:07:45.145Z,6.72
2023-01-30T03:10:34.372Z,7.55
2023-01-30T03:13:36.287Z,7.13
2023-01-30T03:16:25.874Z,6.88
2023-01-30T03:18:53.259Z,7.32
2023-01-30T03:21:20.697Z,7.20
2023-01-30T03:23:48.137Z,6.85
2023-01-30T03:26:21.237Z,6.55
2023-01-30T03:28:50.556Z,7.15
2023-01-30T03:31:18.177Z,6.47
2023-01-30T03:33:45.641Z,6.57
2023-01-30T03:36:13.272Z,7.53
2023-01-30T03:38:40.640Z,6.85
2023-01-30T03:41:07.941Z,7.13
2023-01-30T03:43:35.309Z,7.25
2023-01-30T03:46:05.412Z,7.15
2023-01-30T03:48:32.729Z,6.97
2023-01-30T03:51:00.104Z,7.13
2023-01-30T03:53:27.424Z,7.60
2023-01-30T03:55:54.763Z,6.68
2023-01-30T03:58:22.088Z,7.15
2023-01-30T04:00:49.667Z,7.45
2023-01-30T04:03:16.931Z,7.93
2023-01-30T04:05:44.542Z,7.20
2023-01-30T04:08:12.036Z,7.22
2023-01-30T04:10:39.437Z,7.43
2023-01-30T04:13:06.875Z,7.50
2023-01-30T04:15:34.326Z,7.28
2023-01-30T04:18:01.695Z,7.55
2023-01-30T04:20:29.116Z,7.93
2023-01-30T04:22:56.541Z,8.20
2023-01-30T04:25:23.870Z,7.65
2023-01-30T04:27:51.240Z,8.23
2023-01-30T04:30:18.793Z,7.30
2023-01-30T04:32:46.229Z,7.60
2023-01-30T04:35:13.908Z,7.57
2023-01-30T04:37:41.284Z,7.30
2023-01-30T04:40:09.131Z,6.65
2023-01-30T04:42:36.472Z,7.60
2023-01-30T04:45:04.016Z,7.00
2023-01-30T04:47:31.400Z,6.30
2023-01-30T04:49:58.786Z,6.50
2023-01-30T04:52:26.081Z,5.03
2023-01-30T04:54:53.376Z,5.15
2023-01-30T04:57:20.722Z,4.95
2023-01-30T04:59:48.579Z,4.13
2023-01-30T05:02:15.991Z,4.40
2023-01-30T05:04:43.324Z,3.80
2023-01-30T05:07:11.851Z,3.67
2023-01-30T05:09:39.147Z,3.10
2023-01-30T05:12:06.665Z,3.30
2023-01-30T05:14:35.572Z,3.47
2023-01-30T05:17:02.950Z,3.70
2023-01-30T05:19:30.586Z,3.33
2023-01-30T05:22:01.056Z,3.47
2023-01-30T05:24:28.400Z,3.40
2023-01-30T05:26:55.773Z,2.97
2023-01-30T05:29:23.288Z,3.30
2023-01-30T05:31:50.658Z,3.10
2023-01-30T05:34:18.110Z,3.35
2023-01-30T05:36:45.827Z,3.55
2023-01-30T05:39:15.673Z,4.50
2023-01-30T05:41:43.012Z,3.92
2023-01-30T05:44:11.810Z,3.92
2023-01-30T05:46:40.134Z,3.17
2023-01-30T05:49:07.745Z,3.60
2023-01-30T05:51:35.175Z,3.17
2023-01-30T05:54:02.693Z,3.80
2023-01-30T05:56:33.280Z,4.10
2023-01-30T05:59:01.895Z,3.70
2023-01-30T06:01:33.383Z,4.25
2023-01-30T06:04:00.895Z,4.63
2023-01-30T06:06:28.399Z,4.05
2023-01-30T06:08:56.733Z,4.25
2023-01-30T06:11:24.532Z,4.32
2023-01-30T06:13:52.015Z,3.90
2023-01-30T06:16:20.432Z,3.80
2023-01-30T06:18:47.814Z,4.50
2023-01-30T06:21:15.956Z,4.20
2023-01-30T06:23:43.922Z,4.47
2023-01-30T06:26:11.445Z,5.10
2023-01-30T06:28:38.900Z,4.60
2023-01-30T06:31:09.979Z,4.78
2023-01-30T06:37:02.698Z,4.90
2023-01-30T06:43:48.368Z,5.20
2023-01-30T06:54:18.494Z,5.60
2023-01-30T06:57:55.184Z,5.22
2023-01-30T07:04:51.579Z,4.85
2023-01-30T07:07:20.354Z,5.85
2023-01-30T07:10:06.732Z,4.78
2023-01-30T07:12:51.692Z,5.20
2023-01-30T07:21:37.910Z,4.78
2023-01-30T07:22:19.168Z,4.97
2023-01-30T07:24:46.560Z,4.40
2023-01-30T07:27:14.750Z,4.65
2023-01-30T07:29:42.374Z,4.40
2023-01-30T07:32:16.346Z,5.05
2023-01-30T07:34:45.120Z,4.63
2023-01-30T07:37:12.596Z,4.57
2023-01-30T07:39:39.997Z,4.50
2023-01-30T07:42:07.389Z,4.60
2023-01-30T07:44:34.908Z,4.60
2023-01-30T07:47:03.853Z,5.18
2023-01-30T07:49:31.399Z,4.45
2023-01-30T07:51:58.903Z,4.63
2023-01-30T07:54:26.807Z,4.13
2023-01-30T07:56:54.912Z,4.72
2023-01-30T07:59:22.260Z,4.75
2023-01-30T08:01:49.797Z,5.00
2023-01-30T08:04:17.353Z,4.43
2023-01-30T08:06:44.781Z,4.60
2023-01-30T08:09:12.273Z,4.78
2023-01-30T08:11:39.653Z,5.60
2023-01-30T08:14:07.162Z,4.38
2023-01-30T08:16:34.618Z,4.85
2023-01-30T08:19:05.904Z,4.20
2023-01-30T08:21:33.315Z,4.22
2023-01-30T08:24:01.472Z,4.78
2023-01-30T08:26:29.116Z,4.68
2023-01-30T08:28:56.689Z,4.40
2023-01-30T08:31:24.089Z,5.22
2023-01-30T08:33:51.583Z,4.68
2023-01-30T08:36:18.982Z,4.43
2023-01-30T08:38:46.344Z,4.25
2023-01-30T08:41:13.801Z,4.35
2023-01-30T08:43:41.112Z,4.70
2023-01-30T08:46:08.562Z,4.75
2023-01-30T08:48:49.182Z,4.63
2023-01-30T08:51:17.663Z,4.35
2023-01-30T08:53:45.032Z,4.68
2023-01-30T08:56:12.473Z,4.45
2023-01-30T08:58:40.879Z,4.40
2023-01-30T09:01:08.705Z,4.78
2023-01-30T09:03:36.496Z,4.68
2023-01-30T09:06:04.004Z,3.55
2023-01-30T09:08:31.381Z,4.07
2023-01-30T09:11:01.112Z,4.50
2023-01-30T09:13:28.575Z,4.90
2023-01-30T09:15:56.036Z,4.43
2023-01-30T09:18:23.892Z,5.05
2023-01-30T09:20:52.791Z,4.20
2023-01-30T09:23:21.153Z,4.20
2023-01-30T09:25:48.507Z,3.90
2023-01-30T09:28:15.848Z,4.38
2023-01-30T09:30:43.320Z,4.93
2023-01-30T09:33:10.962Z,3.95
2023-01-30T09:35:38.264Z,4.45
2023-01-30T09:38:05.767Z,4.18
2023-01-30T09:40:33.496Z,4.70
2023-01-30T09:43:11.164Z,3.83
2023-01-30T09:45:45.450Z,5.28
2023-01-30T09:48:22.993Z,4.43
2023-01-30T09:51:05.464Z,4.25
2023-01-30T09:53:38.287Z,4.45
2023-01-30T09:56:05.762Z,4.53
2023-01-30T09:58:58.541Z,4.20
2023-01-30T10:01:49.495Z,4.53
2023-01-30T10:04:24.378Z,4.05
2023-01-30T10:06:59.751Z,4.13
2023-01-30T10:09:39.157Z,5.07
2023-01-30T10:12:28.012Z,4.15
2023-01-30T10:15:23.156Z,4.72
2023-01-30T10:17:53.639Z,5.00
2023-01-30T10:20:25.781Z,4.20
2023-01-30T10:23:04.326Z,4.50
2023-01-30T10:25:55.431Z,4.85
2023-01-30T10:28:29.118Z,4.50
2023-01-30T10:31:05.710Z,4.63
2023-01-30T10:33:37.827Z,4.57
2023-01-30T10:36:10.703Z,4.75
2023-01-30T10:41:21.329Z,4.57
2023-01-30T10:44:02.765Z,4.93
2023-01-30T10:46:55.298Z,4.93
2023-01-30T10:49:40.273Z,4.32
2023-01-30T10:52:34.578Z,4.88
2023-01-30T10:55:36.736Z,5.20
2023-01-30T10:58:24.140Z,4.57
2023-01-30T11:00:57.338Z,5.05
2023-01-30T11:03:39.989Z,4.53
2023-01-30T11:06:12.808Z,4.88
2023-01-30T11:08:40.345Z,5.05
2023-01-30T11:11:27.228Z,5.18
2023-01-30T11:14:09.481Z,4.97
2023-01-30T11:16:58.102Z,4.57
2023-01-30T11:19:32.899Z,5.00
2023-01-30T11:22:06.987Z,5.63
2023-01-30T11:24:45.261Z,5.28
2023-01-30T11:27:19.128Z,5.07
2023-01-30T11:29:47.881Z,5.03
2023-01-30T11:32:27.741Z,4.40
2023-01-30T11:35:19.654Z,5.13
2023-01-30T11:37:47.061Z,5.88
2023-01-30T11:40:25.906Z,5.03
2023-01-30T11:43:14.090Z,5.07
2023-01-30T11:45:45.409Z,5.05
2023-01-30T11:48:33.208Z,5.88
2023-01-30T11:51:13.591Z,5.22
2023-01-30T11:54:02.651Z,5.60
2023-01-30T11:56:42.713Z,4.82
2023-01-30T11:59:37.141Z,6.10
2023-01-30T12:02:23.711Z,5.15
2023-01-30T12:04:57.844Z,5.30
2023-01-30T12:07:28.047Z,5.45
2023-01-30T12:09:57.408Z,4.90
2023-01-30T12:12:31.574Z,5.03
2023-01-30T12:15:30.751Z,5.20
2023-01-30T12:18:05.854Z,5.50
2023-01-30T12:20:54.590Z,5.43
2023-01-30T12:23:47.415Z,5.70
2023-01-30T12:26:25.967Z,4.65
2023-01-30T12:28:57.434Z,5.30
2023-01-30T12:32:03.777Z,5.70
2023-01-30T12:34:31.762Z,5.80
2023-01-30T12:37:05.202Z,4.97
2023-01-30T12:39:42.595Z,5.93
2023-01-30T12:42:25.908Z,5.13
2023-01-30T12:45:18.017Z,5.25
2023-01-30T12:48:10.533Z,4.65
2023-01-30T12:50:59.002Z,5.47
2023-01-30T12:53:46.561Z,4.90
2023-01-30T12:56:35.654Z,5.65
2023-01-30T12:59:12.446Z,6.00
2023-01-30T13:01:56.459Z,5.60
2023-01-30T13:04:51.185Z,5.53
2023-01-30T13:07:41.603Z,4.38
2023-01-30T13:10:35.048Z,5.68
2023-01-30T13:16:06.512Z,5.47
2023-01-30T13:18:56.450Z,4.85
2023-01-30T13:21:56.915Z,4.88
2023-01-30T13:24:36.697Z,5.45
2023-01-30T13:27:09.464Z,5.57
2023-01-30T13:29:39.238Z,6.18
2023-01-30T13:32:16.949Z,5.38
2023-01-30T13:34:49.440Z,5.43
2023-01-30T13:37:19.115Z,6.38
2023-01-30T13:40:14.793Z,6.25
2023-01-30T13:46:25.044Z,5.45
2023-01-30T13:49:11.478Z,6.03
2023-01-30T13:52:23.564Z,5.50
2023-01-30T13:55:10.405Z,5.57
2023-01-30T13:57:56.381Z,5.15
2023-01-30T14:00:34.678Z,5.25
2023-01-30T14:03:08.020Z,5.03
2023-01-30T14:05:54.105Z,5.82
2023-01-30T14:08:27.099Z,6.50
2023-01-30T14:10:55.835Z,5.38
2023-01-30T14:13:25.010Z,5.97
2023-01-30T14:15:57.094Z,5.63
2023-01-30T14:18:30.846Z,6.07
2023-01-30T14:21:26.409Z,5.45
2023-01-30T14:24:04.544Z,5.50
2023-01-30T14:26:51.771Z,5.43
2023-01-30T14:29:37.776Z,4.63
2023-01-30T14:32:14.453Z,5.35
2023-01-30T14:35:11.216Z,5.53
2023-01-30T14:37:39.251Z,5.18
2023-01-30T14:40:31.212Z,5.45
2023-01-30T14:43:16.965Z,5.55
2023-01-30T14:45:58.603Z,5.40
2023-01-30T14:48:42.928Z,5.28
2023-01-30T14:51:34.457Z,4.45
2023-01-30T14:54:16.917Z,6.05
2023-01-30T14:56:54.863Z,6.43
2023-01-30T14:59:34.464Z,5.38
2023-01-30T15:02:07.496Z,6.40
2023-01-30T15:04:44.606Z,5.57
2023-01-30T15:07:14.261Z,5.47
2023-01-30T15:09:45.147Z,5.00
2023-01-30T15:12:40.453Z,5.57
2023-01-30T15:15:17.897Z,4.82
2023-01-30T15:17:50.579Z,4.93
2023-01-30T15:20:29.156Z,5.95
2023-01-30T15:23:04.160Z,5.30
2023-01-30T15:25:43.840Z,5.20
2023-01-30T15:28:38.298Z,5.20
2023-01-30T15:31:28.118Z,5.53
2023-01-30T15:33:58.854Z,5.00
2023-01-30T15:36:34.704Z,6.13
2023-01-30T15:39:23.781Z,5.72
2023-01-30T15:41:57.278Z,6.70
2023-01-30T15:44:43.917Z,5.50
2023-01-30T15:47:20.032Z,5.45
2023-01-30T15:50:01.650Z,5.78
2023-01-30T15:52:45.940Z,6.25
2023-01-30T15:55:36.654Z,6.28
2023-01-30T15:58:30.133Z,5.57
2023-01-30T16:01:00.256Z,5.70
2023-01-30T16:03:38.751Z,6.00
2023-01-30T16:06:06.703Z,6.47
2023-01-30T16:08:37.697Z,6.55
2023-01-30T16:11:05.279Z,6.20
2023-01-30T16:13:33.584Z,6.65
2023-01-30T16:16:10.692Z,6.82
2023-01-30T16:19:05.249Z,6.25
2023-01-30T16:21:41.930Z,6.00
2023-01-30T16:24:18.682Z,6.70
2023-01-30T16:26:49.364Z,6.90
2023-01-30T16:29:23.128Z,6.75
2023-01-30T16:31:53.256Z,5.88
2023-01-30T16:34:34.214Z,7.03
2023-01-30T16:37:18.493Z,7.40
2023-01-30T16:39:46.548Z,7.70
2023-01-30T16:42:28.332Z,6.03
2023-01-30T16:45:12.903Z,5.88
2023-01-30T16:47:40.767Z,6.10
2023-01-30T16:50:38.283Z,6.18
2023-01-30T16:53:06.212Z,6.35
2023-01-30T16:55:35.458Z,5.80
2023-01-30T16:58:04.487Z,6.45
2023-01-30T17:00:38.098Z,6.20
2023-01-30T17:03:31.691Z,7.07
2023-01-30T17:05:59.951Z,6.38
2023-01-30T17:08:47.219Z,7.30
2023-01-30T17:11:31.702Z,5.97
2023-01-30T17:14:11.206Z,6.47
2023-01-30T17:16:40.471Z,6.15
2023-01-30T17:19:08.258Z,5.90
2023-01-30T17:21:51.750Z,6.72
2023-01-30T17:24:23.793Z,7.20
2023-01-30T17:26:59.234Z,6.00
2023-01-30T17:29:47.357Z,7.15
2023-01-30T17:32:16.283Z,6.13
2023-01-30T17:34:43.851Z,6.78
2023-01-30T17:37:21.905Z,6.97
2023-01-30T17:39:49.891Z,6.15
2023-01-30T17:42:18.693Z,6.03
2023-01-30T17:44:46.269Z,6.25
2023-01-30T17:47:13.675Z,7.78
2023-01-30T17:49:41.482Z,7.38
2023-01-30T17:52:09.502Z,6.15
2023-01-30T17:54:37.067Z,6.38
2023-01-30T17:57:06.852Z,7.30
2023-01-30T17:59:34.788Z,6.72
2023-01-30T18:02:02.322Z,5.90
2023-01-30T18:04:29.928Z,6.30
2023-01-30T18:07:04.047Z,6.18
2023-01-30T18:09:32.078Z,5.97
2023-01-30T18:12:00.019Z,6.93
2023-01-30T18:14:27.880Z,6.07
2023-01-30T18:17:00.748Z,6.05
2023-01-30T18:21:58.297Z,6.47
2023-01-30T18:24:25.820Z,5.90
2023-01-30T18:26:53.454Z,6.10
2023-01-30T18:29:20.891Z,5.75
2023-01-30T18:31:49.643Z,6.15
2023-01-30T18:34:17.497Z,6.10
2023-01-30T18:36:45.071Z,5.00
2023-01-30T18:39:13.154Z,5.10
2023-01-30T18:41:40.548Z,5.45
2023-01-30T18:44:08.124Z,5.47
2023-01-30T18:46:37.873Z,5.55
2023-01-30T18:49:06.447Z,5.15
2023-01-30T18:51:35.497Z,5.75
2023-01-30T18:54:03.286Z,6.40
2023-01-30T18:56:33.338Z,5.43
2023-01-30T18:59:04.258Z,5.45
2023-01-30T19:01:38.202Z,5.53
2023-01-30T19:04:08.266Z,6.20
2023-01-30T19:06:37.607Z,5.72
2023-01-30T19:09:06.767Z,5.53
2023-01-30T19:11:53.001Z,5.03
2023-01-30T19:14:20.621Z,5.93
2023-01-30T19:16:49.051Z,5.93
2023-01-30T19:19:17.175Z,5.78
2023-01-30T19:21:46.089Z,5.50
2023-01-30T19:24:15.589Z,5.40
2023-01-30T19:26:43.478Z,5.70
2023-01-30T19:29:13.297Z,5.57
2023-01-30T19:31:42.149Z,5.43
2023-01-30T19:34:10.951Z,5.90
2023-01-30T19:36:38.945Z,4.70
2023-01-30T19:39:07.028Z,5.47
2023-01-30T19:41:38.069Z,5.00
2023-01-30T19:44:08.249Z,5.75
2023-01-30T19:46:36.465Z,5.05
2023-01-30T19:49:05.774Z,5.50
2023-01-30T19:51:35.872Z,4.93
2023-01-30T19:54:06.495Z,5.57
2023-01-30T19:56:35.063Z,5.40
2023-01-30T19:59:03.717Z,5.80
2023-01-30T20:01:35.436Z,6.65
2023-01-30T20:04:03.734Z,5.88
2023-01-30T20:06:32.825Z,5.47
2023-01-30T20:09:05.947Z,5.95
2023-01-30T20:11:35.262Z,5.60
2023-01-30T20:14:05.101Z,5.70
2023-01-30T20:16:34.799Z,5.18
2023-01-30T20:19:07.459Z,6.13
2023-01-30T20:21:36.056Z,6.55
2023-01-30T20:24:04.393Z,6.35
2023-01-30T20:26:35.556Z,5.28
2023-01-30T20:29:04.591Z,5.82
2023-01-30T20:31:33.916Z,5.43
2023-01-30T20:34:03.298Z,6.40
2023-01-30T20:36:30.940Z,5.68
2023-01-30T20:39:04.237Z,5.10
2023-01-30T20:41:33.495Z,5.30
2023-01-30T20:44:01.069Z,5.57
2023-01-30T20:46:31.497Z,5.70
2023-01-30T20:49:01.906Z,4.65
2023-01-30T20:51:32.308Z,4.93
2023-01-30T20:54:05.414Z,5.82
2023-01-30T20:56:35.319Z,5.82
2023-01-30T20:59:04.663Z,5.20
2023-01-30T21:01:32.221Z,5.88
2023-01-30T21:04:00.289Z,5.47
2023-01-30T21:06:42.461Z,5.45
2023-01-30T21:09:22.497Z,5.25
2023-01-30T21:11:52.797Z,5.55
2023-01-30T21:14:20.404Z,5.90
2023-01-30T21:16:48.312Z,5.28
2023-01-30T21:19:17.213Z,5.72
2023-01-30T21:21:52.900Z,6.25
2023-01-30T21:24:25.968Z,5.50
2023-01-30T21:26:57.798Z,5.55
2023-01-30T21:29:27.397Z,5.47
2023-01-30T21:31:56.003Z,5.35
2023-01-30T21:34:23.773Z,5.63
2023-01-30T21:37:09.756Z,7.13
2023-01-30T21:39:56.004Z,9.13
2023-01-30T21:42:42.086Z,6.32
2023-01-30T21:45:09.961Z,5.35
2023-01-30T21:47:42.943Z,5.32
2023-01-30T21:50:10.962Z,4.50
2023-01-30T21:52:38.989Z,5.10
2023-01-30T21:55:06.767Z,5.57
2023-01-30T21:57:34.348Z,5.55
2023-01-30T22:00:01.676Z,4.47
2023-01-30T22:02:29.680Z,5.38
2023-01-30T22:04:57.112Z,5.47
2023-01-30T22:07:24.658Z,4.47
2023-01-30T22:09:52.078Z,5.35
2023-01-30T22:12:19.546Z,5.40
2023-01-30T22:14:48.545Z,4.95
2023-01-30T22:17:16.339Z,4.57
2023-01-30T22:19:44.126Z,4.40
2023-01-30T22:22:11.720Z,5.10
2023-01-30T22:24:39.667Z,4.22
2023-01-30T22:27:07.069Z,5.07
2023-01-30T22:29:36.063Z,4.57
2023-01-30T22:32:06.010Z,4.80
2023-01-30T22:34:35.839Z,5.10
2023-01-30T22:37:04.518Z,5.10
2023-01-30T22:39:32.153Z,4.30
2023-01-30T22:41:59.494Z,4.93
2023-01-30T22:44:26.965Z,4.35
2023-01-30T22:46:54.566Z,4.95
2023-01-30T22:49:21.907Z,4.32
2023-01-30T22:51:49.320Z,4.68
2023-01-30T22:54:17.051Z,4.40
2023-01-30T22:56:49.027Z,4.80
2023-01-30T22:59:16.594Z,4.80
2023-01-30T23:01:46.580Z,3.85
2023-01-30T23:04:32.171Z,5.75
2023-01-30T23:06:59.676Z,4.97
2023-01-30T23:09:27.133Z,4.95
2023-01-30T23:12:15.306Z,4.45
2023-01-30T23:14:43.034Z,4.65
2023-01-30T23:17:29.627Z,4.50
2023-01-30T23:19:57.555Z,4.28
2023-01-30T23:22:25.137Z,4.95
2023-01-30T23:24:52.747Z,5.15
2023-01-30T23:27:20.889Z,4.32
2023-01-30T23:29:48.398Z,4.65
2023-01-30T23:32:19.106Z,5.15
2023-01-30T23:34:47.672Z,6.15
2023-01-30T23:37:15.771Z,4.38
2023-01-30T23:39:43.279Z,4.75
2023-01-30T23:42:10.806Z,4.97
2023-01-30T23:44:38.726Z,4.55
2023-01-30T23:47:06.229Z,4.88
2023-01-30T23:49:33.628Z,4.03
2023-01-30T23:52:01.020Z,4.45
2023-01-30T23:54:28.378Z,4.32
2023-01-30T23:56:55.750Z,5.05
2023-01-30T23:59:23.087Z,4.63
